Time;durP1;ratioP1;P1;durP2;ratioP2;P2;SDS_P1;SDS_P2;PMS_P1;PMS_P2;Temp;Humidity;BMP_temperature;BMP_pressure;BME280_temperature;BME280_humidity;BME280_pressure;Samples;Min_cycle;Max_cycle;Signal;HPM_P1;HPM_P2
2023/10/06 00:02:56;;;;;;;15.13;3.20;;;14.20;99.90;;;;;;4815210;29;20839;-82
2023/10/06 00:05:23;;;;;;;10.80;2.75;;;14.20;99.90;;;;;;4830268;29;20598;-82
2023/10/06 00:07:50;;;;;;;9.25;3.63;;;14.20;99.90;;;;;;4813825;29;20415;-82
2023/10/06 00:10:22;;;;;;;11.15;3.47;;;14.10;99.90;;;;;;4840009;29;20326;-79
2023/10/06 00:12:53;;;;;;;11.85;3.13;;;14.10;99.90;;;;;;4825705;29;20054;-79
2023/10/06 00:16:05;;;;;;;8.18;3.47;;;14.20;99.90;;;;;;4818901;29;20055;-80
2023/10/06 00:18:16;;;;;;;13.52;3.70;;;14.10;99.90;;;;;;4802981;29;20055;-79
2023/10/06 00:20:49;;;;;;;7.70;3.22;;;14.10;99.90;;;;;;4838583;29;20069;-80
2023/10/06 00:23:22;;;;;;;10.60;3.72;;;14.20;99.90;;;;;;4830690;29;20046;-82
2023/10/06 00:25:54;;;;;;;13.02;4.55;;;14.10;99.90;;;;;;4795504;29;20046;-78
2023/10/06 00:28:25;;;;;;;9.18;2.92;;;14.10;99.90;;;;;;4826305;29;20533;-79
2023/10/06 00:30:56;;;;;;;11.27;3.10;;;14.10;99.90;;;;;;4796404;29;20053;-77
2023/10/06 00:33:32;;;;;;;11.20;3.53;;;14.10;99.90;;;;;;4828354;29;20054;-78
2023/10/06 00:35:59;;;;;;;8.63;3.33;;;14.10;99.90;;;;;;4843297;29;20092;-79
2023/10/06 00:38:24;;;;;;;11.32;3.25;;;14.10;99.90;;;;;;4798257;29;20051;-80
2023/10/06 00:40:54;;;;;;;10.85;3.47;;;14.10;99.90;;;;;;4829109;29;20856;-77
2023/10/06 00:43:36;;;;;;;12.50;4.03;;;14.10;99.90;;;;;;4796977;29;20054;-80
2023/10/06 00:46:06;;;;;;;12.52;4.25;;;14.10;99.90;;;;;;4820215;29;20054;-78
2023/10/06 00:48:42;;;;;;;12.68;4.03;;;15.00;99.90;;;;;;4834584;29;20053;-79
2023/10/06 00:51:12;;;;;;;5.70;3.10;;;14.10;99.90;;;;;;4814229;29;20446;-80
2023/10/06 00:53:40;;;;;;;13.82;3.83;;;14.10;99.90;;;;;;4819741;29;20550;-79
2023/10/06 00:56:15;;;;;;;9.88;3.50;;;14.10;99.90;;;;;;4833810;29;20078;-81
2023/10/06 00:58:41;;;;;;;11.63;3.78;;;14.10;99.90;;;;;;4800753;29;20054;-80
2023/10/06 01:01:19;;;;;;;11.02;3.67;;;14.10;99.90;;;;;;4828906;29;20161;-82
2023/10/06 01:04:00;;;;;;;12.98;3.83;;;14.10;99.90;;;;;;4828971;29;20042;-80
2023/10/06 01:06:33;;;;;;;11.55;3.47;;;14.10;99.90;;;;;;4832278;29;20046;-80
2023/10/06 01:09:07;;;;;;;11.05;3.63;;;14.20;99.90;;;;;;4829659;29;20058;-82
2023/10/06 01:11:46;;;;;;;12.52;3.72;;;14.20;99.90;;;;;;4816728;29;20134;-81
2023/10/06 01:14:21;;;;;;;7.80;3.67;;;14.20;99.90;;;;;;4832747;29;20456;-80
2023/10/06 01:16:49;;;;;;;7.82;3.38;;;14.20;99.90;;;;;;4812710;29;20204;-83
2023/10/06 01:19:27;;;;;;;9.20;3.72;;;14.20;99.90;;;;;;4796468;29;20054;-81
2023/10/06 01:21:55;;;;;;;5.22;2.78;;;14.10;99.90;;;;;;4828274;29;20521;-84
2023/10/06 01:24:26;;;;;;;12.35;4.10;;;14.20;99.90;;;;;;4828717;29;20098;-81
2023/10/06 01:27:10;;;;;;;8.70;3.67;;;14.20;99.90;;;;;;4841614;29;20131;-82
2023/10/06 01:29:36;;;;;;;8.02;3.78;;;14.20;99.90;;;;;;4796978;29;20129;-81
2023/10/06 01:32:05;;;;;;;7.63;3.97;;;14.20;99.90;;;;;;4827406;29;20080;-81
2023/10/06 01:34:38;;;;;;;11.55;3.53;;;14.20;99.90;;;;;;4813237;29;20058;-79
2023/10/06 01:37:09;;;;;;;12.18;4.50;;;14.20;99.90;;;;;;4800545;29;20099;-83
2023/10/06 01:39:35;;;;;;;14.77;3.97;;;14.20;99.90;;;;;;4840976;29;20610;-79
2023/10/06 01:42:04;;;;;;;11.63;4.25;;;14.20;99.90;;;;;;4811807;29;20046;-80
2023/10/06 01:44:31;;;;;;;9.90;4.28;;;14.20;99.90;;;;;;4812630;29;20091;-80
2023/10/06 01:46:57;;;;;;;11.98;4.45;;;13.80;99.90;;;;;;4831748;29;20106;-78
2023/10/06 01:49:23;;;;;;;17.20;5.20;;;14.30;99.90;;;;;;4829296;29;20125;-77
2023/10/06 01:51:52;;;;;;;16.73;5.68;;;14.30;99.90;;;;;;4833431;29;20054;-82
2023/10/06 01:54:19;;;;;;;13.23;5.05;;;14.30;99.90;;;;;;4829736;29;20133;-78
2023/10/06 01:56:48;;;;;;;11.85;5.38;;;14.30;99.90;;;;;;4831669;29;20445;-81
2023/10/06 01:59:14;;;;;;;10.77;5.35;;;14.30;99.90;;;;;;4796331;29;20066;-79
2023/10/06 02:01:41;;;;;;;11.52;5.60;;;14.30;99.90;;;;;;4798883;29;20046;-78
2023/10/06 02:04:11;;;;;;;11.93;4.93;;;14.30;99.90;;;;;;4827025;29;20403;-81
2023/10/06 02:06:38;;;;;;;11.35;4.93;;;14.30;99.90;;;;;;4834776;29;20051;-79
2023/10/06 02:09:18;;;;;;;12.55;5.10;;;14.30;99.90;;;;;;4823630;29;20065;-78
2023/10/06 02:11:51;;;;;;;12.93;5.65;;;14.30;99.90;;;;;;4817495;29;20058;-80
2023/10/06 02:14:18;;;;;;;19.45;5.97;;;14.30;99.90;;;;;;4832718;29;20051;-80
2023/10/06 02:16:49;;;;;;;10.63;5.70;;;14.30;99.90;;;;;;4837070;29;20050;-77
2023/10/06 02:19:18;;;;;;;16.33;5.75;;;14.30;99.90;;;;;;4834402;29;20065;-80
2023/10/06 02:21:45;;;;;;;20.23;6.70;;;14.30;99.90;;;;;;4817632;29;20445;-81
2023/10/06 02:24:16;;;;;;;13.50;5.50;;;14.30;99.90;;;;;;4802549;29;20053;-82
2023/10/06 02:26:58;;;;;;;14.43;5.53;;;14.70;99.90;;;;;;4802593;29;20054;-78
2023/10/06 02:29:24;;;;;;;13.88;6.20;;;14.30;99.90;;;;;;4831188;29;20042;-81
2023/10/06 02:31:50;;;;;;;11.15;5.88;;;14.90;99.90;;;;;;4832156;29;20042;-78
2023/10/06 02:34:29;;;;;;;11.93;5.93;;;14.40;99.90;;;;;;4817124;29;20140;-77
2023/10/06 02:36:55;;;;;;;14.68;6.10;;;14.30;99.90;;;;;;4816701;29;20054;-79
2023/10/06 02:39:21;;;;;;;17.63;5.85;;;14.30;99.90;;;;;;4833005;29;20046;-80
2023/10/06 02:41:47;;;;;;;17.40;6.47;;;14.30;99.90;;;;;;4842286;29;20054;-80
2023/10/06 02:44:22;;;;;;;13.40;5.78;;;14.70;99.90;;;;;;4834303;29;20061;-80
2023/10/06 02:46:52;;;;;;;15.25;5.50;;;14.30;99.90;;;;;;4816784;29;20057;-78
2023/10/06 02:49:24;;;;;;;15.60;5.60;;;14.20;99.90;;;;;;4831559;29;20061;-78
2023/10/06 02:51:50;;;;;;;12.18;5.43;;;14.20;99.90;;;;;;4818175;29;20128;-81
2023/10/06 02:56:44;;;;;;;13.98;6.47;;;14.20;99.90;;;;;;4825710;29;20086;-79
2023/10/06 02:59:22;;;;;;;13.20;6.03;;;14.20;99.90;;;;;;4817958;29;20031;-78
2023/10/06 03:01:52;;;;;;;15.57;6.53;;;14.20;99.90;;;;;;4815057;29;20074;-78
2023/10/06 03:04:25;;;;;;;16.10;6.72;;;14.20;99.90;;;;;;4817409;29;20042;-78
2023/10/06 03:06:55;;;;;;;14.95;6.28;;;14.20;99.90;;;;;;4831474;29;20054;-81
2023/10/06 03:09:27;;;;;;;13.23;6.95;;;14.20;99.90;;;;;;4841616;29;20522;-79
2023/10/06 03:11:58;;;;;;;15.43;7.03;;;14.60;99.90;;;;;;4801077;29;20047;-81
2023/10/06 03:14:37;;;;;;;11.50;6.30;;;14.50;99.90;;;;;;4829192;29;20365;-78
2023/10/06 03:17:08;;;;;;;14.98;6.70;;;13.50;99.90;;;;;;4808159;29;20133;-78
2023/10/06 03:19:40;;;;;;;12.98;7.03;;;14.10;99.90;;;;;;4823179;29;20499;-77
2023/10/06 03:22:12;;;;;;;19.40;7.60;;;14.80;99.90;;;;;;4837952;29;20448;-76
2023/10/06 03:25:16;;;;;;;18.63;8.20;;;14.10;99.90;;;;;;4809792;29;20038;-77
2023/10/06 03:27:31;;;;;;;12.52;7.60;;;14.10;99.90;;;;;;4807762;29;20058;-78
2023/10/06 03:30:08;;;;;;;16.52;8.38;;;14.10;99.90;;;;;;4794877;29;20526;-82
2023/10/06 03:32:38;;;;;;;15.90;8.38;;;14.10;99.90;;;;;;4838316;29;21331;-79
2023/10/06 03:35:14;;;;;;;16.25;8.48;;;14.10;99.90;;;;;;4813114;29;20057;-79
2023/10/06 03:37:51;;;;;;;18.45;8.65;;;14.10;99.90;;;;;;4807615;29;20058;-81
2023/10/06 03:40:30;;;;;;;14.80;8.23;;;14.10;99.90;;;;;;4793437;29;20381;-79
2023/10/06 03:42:57;;;;;;;13.23;8.45;;;14.00;99.90;;;;;;4797717;29;20062;-81
2023/10/06 03:45:31;;;;;;;16.15;8.95;;;15.10;99.90;;;;;;4799971;29;20046;-81
2023/10/06 03:48:11;;;;;;;19.70;10.20;;;14.20;99.90;;;;;;4841501;29;20058;-79
2023/10/06 03:50:43;;;;;;;21.15;9.90;;;14.00;99.90;;;;;;4820045;29;20069;-78
2023/10/06 03:53:13;;;;;;;21.48;10.25;;;14.00;99.90;;;;;;4826234;29;20106;-78
2023/10/06 03:55:43;;;;;;;20.38;9.68;;;14.00;99.90;;;;;;4830051;29;20047;-78
2023/10/06 03:58:11;;;;;;;16.95;8.73;;;14.00;99.90;;;;;;4817051;29;20050;-79
2023/10/06 04:00:44;;;;;;;17.13;9.50;;;14.00;99.90;;;;;;4798490;29;20054;-81
2023/10/06 04:03:13;;;;;;;15.18;9.20;;;14.00;99.90;;;;;;4801346;29;20050;-78
2023/10/06 04:05:44;;;;;;;16.45;9.57;;;14.00;99.90;;;;;;4816401;29;20046;-84
2023/10/06 04:08:18;;;;;;;21.00;9.23;;;14.00;99.90;;;;;;4804839;29;20070;-82
2023/10/06 04:10:48;;;;;;;18.13;9.57;;;14.00;99.90;;;;;;4819215;29;20407;-80
2023/10/06 04:13:17;;;;;;;19.17;9.38;;;13.90;99.90;;;;;;4830786;29;20047;-79
2023/10/06 04:15:48;;;;;;;15.82;8.40;;;13.90;99.90;;;;;;4826935;29;20062;-82
2023/10/06 04:18:17;;;;;;;18.13;9.13;;;13.90;99.90;;;;;;4830837;29;20121;-78
2023/10/06 04:20:46;;;;;;;16.17;8.65;;;13.90;99.90;;;;;;4832333;29;20045;-77
2023/10/06 04:23:13;;;;;;;14.35;8.52;;;13.90;99.90;;;;;;4845422;29;20049;-80
2023/10/06 04:25:43;;;;;;;15.60;8.15;;;13.90;99.90;;;;;;4813433;29;20065;-80
2023/10/06 04:28:14;;;;;;;17.38;8.13;;;14.00;99.90;;;;;;4827289;29;20046;-78
2023/10/06 04:30:44;;;;;;;15.65;8.23;;;13.90;99.90;;;;;;4814473;29;20103;-79
2023/10/06 04:33:18;;;;;;;18.23;8.10;;;13.90;99.90;;;;;;4799073;29;20496;-81
2023/10/06 04:38:31;;;;;;;18.50;7.95;;;14.00;99.90;;;;;;4818388;29;20046;-78
2023/10/06 04:40:57;;;;;;;14.48;7.60;;;14.60;99.90;;;;;;4847647;29;20042;-81
2023/10/06 04:43:23;;;;;;;16.27;7.88;;;14.70;99.90;;;;;;4819453;29;20046;-83
2023/10/06 04:45:50;;;;;;;16.38;7.85;;;15.10;99.90;;;;;;4833206;29;20038;-79
2023/10/06 04:48:18;;;;;;;16.83;8.18;;;14.00;99.90;;;;;;4834392;29;20071;-77
2023/10/06 04:50:45;;;;;;;14.60;7.47;;;13.90;99.90;;;;;;4834108;29;20046;-78
2023/10/06 04:53:11;;;;;;;14.68;7.05;;;13.90;99.90;;;;;;4851274;29;20411;-80
2023/10/06 04:55:40;;;;;;;13.48;7.20;;;13.90;99.90;;;;;;4812224;29;20046;-77
2023/10/06 04:58:14;;;;;;;13.43;7.18;;;14.00;99.90;;;;;;4833995;29;20069;-79
2023/10/06 05:00:41;;;;;;;16.00;6.83;;;14.00;99.90;;;;;;4832356;29;20423;-81
2023/10/06 05:03:10;;;;;;;18.63;7.50;;;13.90;99.90;;;;;;4827084;29;20047;-79
2023/10/06 05:05:38;;;;;;;13.98;6.63;;;14.00;99.90;;;;;;4843491;29;20065;-82
2023/10/06 05:08:10;;;;;;;19.92;7.57;;;13.90;99.90;;;;;;4841854;29;20755;-80
2023/10/06 05:10:40;;;;;;;19.23;6.88;;;14.00;99.90;;;;;;4818543;29;20123;-80
2023/10/06 05:13:07;;;;;;;21.42;7.90;;;13.90;99.90;;;;;;4848148;29;20507;-81
2023/10/06 05:15:36;;;;;;;14.65;6.95;;;14.00;99.90;;;;;;4825161;29;20422;-81
2023/10/06 05:18:04;;;;;;;17.13;6.82;;;14.00;99.90;;;;;;4827396;29;20053;-77
2023/10/06 05:20:35;;;;;;;16.95;6.35;;;14.00;99.90;;;;;;4828430;29;20086;-81
2023/10/06 05:23:09;;;;;;;23.13;7.15;;;13.90;99.90;;;;;;4831786;29;20054;-82
2023/10/06 05:25:36;;;;;;;16.25;6.10;;;13.90;99.90;;;;;;4826336;29;20133;-77
2023/10/06 05:28:03;;;;;;;19.73;6.47;;;13.90;99.90;;;;;;4798344;29;20042;-77
2023/10/06 05:30:32;;;;;;;14.98;5.95;;;13.90;99.90;;;;;;4826429;29;20579;-77
2023/10/06 05:32:59;;;;;;;16.92;5.95;;;14.00;99.90;;;;;;4796386;29;20050;-78
2023/10/06 05:35:35;;;;;;;14.38;6.82;;;13.90;99.90;;;;;;4815319;29;20046;-80
2023/10/06 05:38:13;;;;;;;17.88;6.70;;;13.90;99.90;;;;;;4844265;29;20075;-80
2023/10/06 05:40:43;;;;;;;14.80;6.40;;;13.90;99.90;;;;;;4811977;29;20142;-77
2023/10/06 05:43:11;;;;;;;13.93;6.63;;;13.90;99.90;;;;;;4811194;29;20066;-78
2023/10/06 05:45:39;;;;;;;13.35;6.72;;;13.90;99.90;;;;;;4811312;29;20258;-80
2023/10/06 05:48:11;;;;;;;14.60;6.20;;;13.90;99.90;;;;;;4826640;29;20042;-79
2023/10/06 05:50:40;;;;;;;21.65;5.70;;;13.90;99.90;;;;;;4834629;29;20084;-80
2023/10/06 05:53:12;;;;;;;14.38;6.53;;;13.90;99.90;;;;;;4804186;29;20811;-81
2023/10/06 05:55:41;;;;;;;12.68;5.72;;;13.90;99.90;;;;;;4833928;29;20045;-82
2023/10/06 05:58:09;;;;;;;13.25;5.63;;;13.90;99.90;;;;;;4833120;29;20050;-80
2023/10/06 06:00:50;;;;;;;11.70;6.53;;;13.90;99.90;;;;;;4821895;29;20121;-79
2023/10/06 06:03:20;;;;;;;15.18;7.68;;;13.90;99.90;;;;;;4827734;29;20055;-82
2023/10/06 06:05:49;;;;;;;15.15;6.05;;;13.90;99.90;;;;;;4816962;29;20082;-77
2023/10/06 06:08:15;;;;;;;17.55;7.43;;;14.00;99.90;;;;;;4836322;29;20071;-81
2023/10/06 06:10:41;;;;;;;15.02;6.03;;;14.00;99.90;;;;;;4834639;29;20380;-80
2023/10/06 06:13:07;;;;;;;12.20;5.97;;;14.00;99.90;;;;;;4801727;29;20200;-77
2023/10/06 06:15:35;;;;;;;11.45;5.97;;;14.00;99.90;;;;;;4801236;29;20054;-77
2023/10/06 06:18:01;;;;;;;16.58;6.30;;;14.00;99.90;;;;;;4805558;29;20110;-83
2023/10/06 06:20:30;;;;;;;11.98;6.10;;;14.00;99.90;;;;;;4834512;29;20047;-81
2023/10/06 06:22:59;;;;;;;15.15;6.43;;;14.00;99.90;;;;;;4824481;29;20395;-79
2023/10/06 06:25:26;;;;;;;19.00;6.60;;;14.00;99.90;;;;;;4822157;29;20042;-79
2023/10/06 06:27:54;;;;;;;12.18;5.93;;;14.00;99.90;;;;;;4846868;29;20055;-80
2023/10/06 06:30:24;;;;;;;13.15;6.72;;;14.00;99.90;;;;;;4808787;29;20631;-78
2023/10/06 06:32:52;;;;;;;12.75;6.85;;;14.00;99.90;;;;;;4820238;29;20061;-77
2023/10/06 06:35:22;;;;;;;20.48;7.10;;;14.00;99.90;;;;;;4469163;29;10000761;-78
2023/10/06 06:37:52;;;;;;;12.77;5.72;;;14.00;99.90;;;;;;4800433;29;20050;-78
2023/10/06 06:40:22;;;;;;;11.98;5.88;;;12.80;99.90;;;;;;4803156;29;20229;-78
2023/10/06 06:42:55;;;;;;;16.38;6.65;;;14.00;99.90;;;;;;4830961;29;20537;-77
2023/10/06 06:45:21;;;;;;;16.83;6.05;;;14.00;99.90;;;;;;4806718;29;20312;-77
2023/10/06 06:47:47;;;;;;;13.15;5.60;;;14.40;99.90;;;;;;4829721;29;20652;-78
2023/10/06 06:50:15;;;;;;;12.93;5.78;;;14.10;99.90;;;;;;4796743;29;20045;-77
2023/10/06 06:52:42;;;;;;;14.75;6.32;;;14.10;99.90;;;;;;4794635;29;20055;-78
2023/10/06 06:55:14;;;;;;;11.38;5.82;;;14.10;99.90;;;;;;4807658;29;20054;-79
2023/10/06 06:57:45;;;;;;;16.10;6.15;;;14.10;99.90;;;;;;4835945;29;20058;-79
2023/10/06 07:00:15;;;;;;;16.75;6.85;;;14.10;99.90;;;;;;4843777;29;20043;-79
2023/10/06 07:02:54;;;;;;;13.80;6.15;;;14.20;99.90;;;;;;4850510;29;20053;-78
2023/10/06 07:05:21;;;;;;;12.52;5.95;;;14.20;99.90;;;;;;4821813;29;20058;-79
2023/10/06 07:07:50;;;;;;;18.33;6.82;;;14.20;99.90;;;;;;4836410;29;20054;-78
2023/10/06 07:10:21;;;;;;;12.38;6.18;;;14.20;99.90;;;;;;4830784;29;20098;-79
2023/10/06 07:12:48;;;;;;;20.63;6.50;;;14.20;99.90;;;;;;4804264;29;20330;-79
2023/10/06 07:15:14;;;;;;;15.77;6.30;;;14.20;99.90;;;;;;4833264;29;20457;-78
2023/10/06 07:17:49;;;;;;;13.20;6.00;;;14.20;99.90;;;;;;4825087;29;20054;-78
2023/10/06 07:20:16;;;;;;;19.60;6.85;;;14.20;99.90;;;;;;4810382;29;20507;-78
2023/10/06 07:22:46;;;;;;;13.48;6.20;;;14.20;99.90;;;;;;4816602;29;20057;-78
2023/10/06 07:25:15;;;;;;;15.30;7.63;;;14.20;99.90;;;;;;4836969;29;20070;-78
2023/10/06 07:27:45;;;;;;;18.63;6.38;;;14.30;99.90;;;;;;4836485;29;20137;-78
2023/10/06 07:30:14;;;;;;;19.02;6.90;;;14.30;99.90;;;;;;4813801;29;20080;-79
2023/10/06 07:32:40;;;;;;;12.48;6.43;;;14.30;99.90;;;;;;4835902;29;20051;-79
2023/10/06 07:35:17;;;;;;;13.88;7.03;;;14.30;99.90;;;;;;4826468;29;20073;-79
2023/10/06 07:37:45;;;;;;;19.63;6.97;;;14.40;99.90;;;;;;4828898;29;20510;-75
2023/10/06 07:40:15;;;;;;;17.00;7.47;;;14.40;99.90;;;;;;4831321;29;20419;-76
2023/10/06 07:42:42;;;;;;;23.10;7.60;;;14.40;99.90;;;;;;4840005;29;20051;-75
2023/10/06 07:45:09;;;;;;;13.60;6.15;;;14.40;99.90;;;;;;4816152;29;20560;-75
2023/10/06 07:47:36;;;;;;;22.02;7.38;;;14.40;99.90;;;;;;4831028;29;20082;-75
2023/10/06 07:50:05;;;;;;;15.15;6.80;;;14.50;99.90;;;;;;4801208;29;20042;-80
2023/10/06 07:52:32;;;;;;;18.48;7.55;;;14.40;99.90;;;;;;4798842;29;20047;-77
2023/10/06 07:54:58;;;;;;;19.58;7.28;;;14.40;99.90;;;;;;4839760;29;20055;-79
2023/10/06 07:57:31;;;;;;;26.73;7.70;;;14.50;99.90;;;;;;4838919;29;20046;-80
2023/10/06 08:00:04;;;;;;;13.13;7.00;;;14.40;99.90;;;;;;4817828;29;20062;-81
2023/10/06 08:02:29;;;;;;;17.25;7.18;;;14.50;99.90;;;;;;4830470;29;20038;-78
2023/10/06 08:04:55;;;;;;;17.35;8.38;;;14.50;99.90;;;;;;4828824;29;20053;-79
2023/10/06 08:07:26;;;;;;;17.75;7.13;;;14.90;99.90;;;;;;4800813;29;20056;-79
2023/10/06 08:09:56;;;;;;;16.45;7.82;;;14.50;99.90;;;;;;4816665;29;20129;-79
2023/10/06 08:12:23;;;;;;;12.52;6.90;;;14.60;99.90;;;;;;4816057;29;20046;-79
2023/10/06 08:14:49;;;;;;;18.10;7.15;;;14.70;99.90;;;;;;4812170;29;20564;-79
2023/10/06 08:17:15;;;;;;;18.05;7.00;;;14.70;99.90;;;;;;4827677;29;20133;-78
2023/10/06 08:19:40;;;;;;;19.42;7.50;;;14.80;99.90;;;;;;4815490;29;20138;-80
2023/10/06 08:22:06;;;;;;;15.23;7.20;;;14.80;99.90;;;;;;4815248;29;20050;-80
2023/10/06 08:24:31;;;;;;;19.08;7.43;;;14.90;99.90;;;;;;4816469;29;20054;-79
2023/10/06 08:26:58;;;;;;;19.75;7.80;;;14.90;99.90;;;;;;4814149;29;20516;-79
2023/10/06 08:29:24;;;;;;;27.10;8.82;;;14.90;99.90;;;;;;4829207;29;20043;-80
2023/10/06 08:31:49;;;;;;;14.57;6.90;;;14.90;99.90;;;;;;4840032;29;20064;-79
2023/10/06 08:34:15;;;;;;;13.82;7.00;;;15.00;99.90;;;;;;4846142;29;20030;-80
2023/10/06 08:36:42;;;;;;;14.40;7.13;;;15.00;99.90;;;;;;4816057;29;20501;-80
2023/10/06 08:39:08;;;;;;;22.63;7.68;;;15.10;99.90;;;;;;4830898;29;20054;-80
2023/10/06 08:41:44;;;;;;;18.98;7.65;;;15.10;99.90;;;;;;4834697;29;20051;-80
2023/10/06 08:44:12;;;;;;;20.30;6.82;;;15.20;99.90;;;;;;4816358;29;20042;-80
2023/10/06 08:46:44;;;;;;;18.02;8.30;;;15.20;99.90;;;;;;4831121;29;20057;-79
2023/10/06 08:49:11;;;;;;;22.27;7.57;;;15.20;99.90;;;;;;4810997;29;20055;-79
2023/10/06 08:51:37;;;;;;;20.00;7.32;;;15.40;99.90;;;;;;4836056;29;20046;-79
2023/10/06 08:54:13;;;;;;;20.05;7.07;;;15.30;99.90;;;;;;4820498;29;20076;-79
2023/10/06 08:56:41;;;;;;;19.27;6.43;;;15.40;99.90;;;;;;4819442;29;20670;-79
2023/10/06 08:59:07;;;;;;;18.08;7.80;;;15.50;99.90;;;;;;4835708;29;20073;-80
2023/10/06 09:01:35;;;;;;;20.80;6.45;;;15.60;99.90;;;;;;4800928;29;20125;-80
2023/10/06 09:04:03;;;;;;;16.02;6.30;;;15.60;99.90;;;;;;4828114;29;20054;-80
2023/10/06 09:06:29;;;;;;;20.40;6.55;;;15.60;99.90;;;;;;4834343;29;20048;-79
2023/10/06 09:08:55;;;;;;;20.50;6.13;;;15.70;99.90;;;;;;4835552;29;20061;-79
2023/10/06 09:11:38;;;;;;;15.43;6.75;;;15.70;99.90;;;;;;4819475;29;20051;-79
2023/10/06 09:14:07;;;;;;;20.02;6.35;;;15.80;99.90;;;;;;4834373;29;20046;-78
2023/10/06 09:16:50;;;;;;;18.38;6.10;;;15.80;99.90;;;;;;4797987;29;20047;-79
2023/10/06 09:19:15;;;;;;;19.45;6.38;;;15.90;99.90;;;;;;4801925;29;20134;-79
2023/10/06 09:22:04;;;;;;;18.85;6.28;;;15.90;99.90;;;;;;4839288;29;20459;-79
2023/10/06 09:24:30;;;;;;;14.85;5.70;;;15.90;99.90;;;;;;4828057;29;20088;-80
2023/10/06 09:26:58;;;;;;;19.70;6.05;;;16.00;99.90;;;;;;4847534;29;20042;-80
2023/10/06 09:29:33;;;;;;;20.17;5.60;;;15.90;99.90;;;;;;4835592;29;20271;-79
2023/10/06 09:32:01;;;;;;;18.75;5.55;;;16.00;99.90;;;;;;4819760;29;20073;-79
2023/10/06 09:34:27;;;;;;;15.73;5.78;;;16.00;99.90;;;;;;4827146;29;20623;-79
2023/10/06 09:36:53;;;;;;;14.98;5.75;;;16.00;99.90;;;;;;4834213;29;20035;-80
2023/10/06 09:39:32;;;;;;;15.20;5.47;;;16.10;99.90;;;;;;4833914;29;20054;-79
2023/10/06 09:42:05;;;;;;;22.63;6.00;;;16.10;99.90;;;;;;4825734;29;20046;-79
2023/10/06 09:44:34;;;;;;;28.10;6.43;;;16.10;99.90;;;;;;4824881;29;20439;-79
2023/10/06 09:47:03;;;;;;;14.23;5.53;;;16.20;99.90;;;;;;4819405;29;20069;-79
2023/10/06 09:49:31;;;;;;;21.88;5.88;;;16.20;99.90;;;;;;4804644;29;20407;-80
2023/10/06 09:52:01;;;;;;;19.95;6.00;;;16.50;99.90;;;;;;4823975;29;20562;-80
2023/10/06 09:54:29;;;;;;;17.08;5.72;;;16.20;99.90;;;;;;4844825;29;20144;-80
2023/10/06 09:56:55;;;;;;;18.08;5.22;;;16.30;99.90;;;;;;4830269;29;20106;-80
2023/10/06 09:59:23;;;;;;;14.75;5.43;;;16.30;99.90;;;;;;4819487;29;20054;-79
2023/10/06 10:01:51;;;;;;;17.63;4.93;;;16.30;99.90;;;;;;4818813;29;20061;-79
2023/10/06 10:04:18;;;;;;;17.30;4.93;;;16.40;99.90;;;;;;4834581;29;20179;-79
2023/10/06 10:06:44;;;;;;;15.77;5.63;;;16.50;99.90;;;;;;4819007;29;20062;-79
2023/10/06 10:09:15;;;;;;;16.27;5.13;;;16.50;99.90;;;;;;4171928;29;10000677;-81
2023/10/06 10:11:45;;;;;;;20.85;5.38;;;16.50;99.90;;;;;;4817000;29;20058;-78
2023/10/06 10:14:49;;;;;;;12.18;5.15;;;16.60;99.90;;;;;;4830437;29;20062;-78
2023/10/06 10:17:31;;;;;;;20.52;5.38;;;16.70;99.90;;;;;;4817795;29;20053;-80
2023/10/06 10:19:58;;;;;;;14.63;4.90;;;16.70;99.90;;;;;;4842826;29;20038;-80
2023/10/06 10:22:24;;;;;;;16.80;4.80;;;16.80;99.90;;;;;;4826693;29;20046;-81
2023/10/06 10:24:50;;;;;;;15.43;5.10;;;16.70;99.90;;;;;;4822481;29;20043;-81
2023/10/06 10:27:22;;;;;;;13.95;5.40;;;16.80;99.90;;;;;;4811144;29;20518;-82
2023/10/06 10:29:49;;;;;;;20.42;6.28;;;16.80;99.90;;;;;;4810498;29;20062;-81
2023/10/06 10:32:17;;;;;;;16.90;5.47;;;16.80;99.90;;;;;;4817817;29;20048;-81
2023/10/06 10:35:28;;;;;;;26.42;6.65;;;16.80;99.90;;;;;;4816993;29;20082;-82
2023/10/06 10:38:02;;;;;;;14.65;4.40;;;16.90;99.90;;;;;;4816031;29;20062;-80
2023/10/06 10:40:48;;;;;;;14.82;5.05;;;17.00;99.90;;;;;;4824904;29;20572;-80
2023/10/06 10:43:15;;;;;;;22.58;6.20;;;17.10;99.90;;;;;;4825803;29;20077;-81
2023/10/06 10:45:45;;;;;;;21.35;5.40;;;17.10;99.90;;;;;;4813486;29;20068;-81
2023/10/06 10:48:15;;;;;;;12.13;4.78;;;17.10;99.90;;;;;;4839787;29;20043;-80
2023/10/06 10:50:52;;;;;;;13.98;4.53;;;17.20;99.90;;;;;;4827208;29;20118;-81
2023/10/06 10:53:22;;;;;;;18.73;6.18;;;17.20;99.90;;;;;;4825658;29;20070;-81
2023/10/06 10:55:49;;;;;;;16.77;4.63;;;17.30;99.90;;;;;;4837819;29;20492;-81
2023/10/06 10:58:53;;;;;;;20.35;5.28;;;17.30;99.90;;;;;;4810249;29;20054;-78
2023/10/06 11:01:23;;;;;;;19.02;4.78;;;17.40;99.90;;;;;;4834219;29;20050;-78
2023/10/06 11:04:53;;;;;;;18.92;4.97;;;17.30;99.90;;;;;;4817179;29;20057;-78
2023/10/06 11:07:15;;;;;;;16.98;4.13;;;17.40;99.90;;;;;;4821649;29;20042;-79
2023/10/06 11:09:46;;;;;;;20.58;5.22;;;17.40;99.90;;;;;;4840148;29;20055;-80
2023/10/06 11:12:21;;;;;;;16.80;5.05;;;17.50;99.90;;;;;;4825829;29;20073;-78
2023/10/06 11:14:49;;;;;;;18.02;4.40;;;17.50;99.90;;;;;;4832150;29;20084;-79
2023/10/06 11:17:20;;;;;;;15.98;4.72;;;17.60;99.90;;;;;;4830027;29;20066;-79
2023/10/06 11:19:57;;;;;;;23.13;4.85;;;17.70;99.90;;;;;;4839430;29;20539;-77
2023/10/06 11:22:23;;;;;;;14.82;4.20;;;17.70;99.90;;;;;;4818666;29;20152;-77
2023/10/06 11:24:57;;;;;;;16.00;3.67;;;17.80;99.90;;;;;;4816953;29;20550;-78
2023/10/06 11:27:23;;;;;;;25.27;4.43;;;17.90;99.90;;;;;;4833825;29;20050;-79
2023/10/06 11:29:52;;;;;;;14.35;4.07;;;18.00;99.90;;;;;;4826663;29;20131;-78
2023/10/06 11:32:23;;;;;;;15.93;4.45;;;18.10;99.90;;;;;;4818683;29;20519;-79
2023/10/06 11:34:52;;;;;;;16.35;4.18;;;18.20;99.90;;;;;;4802196;29;20515;-79
2023/10/06 11:37:22;;;;;;;16.17;4.32;;;18.20;99.90;;;;;;4817601;29;20050;-79
2023/10/06 11:39:51;;;;;;;15.98;4.15;;;18.20;99.90;;;;;;4816480;29;20597;-79
2023/10/06 11:42:25;;;;;;;15.35;3.90;;;18.20;99.90;;;;;;4816597;29;20068;-79
2023/10/06 11:44:59;;;;;;;16.50;4.32;;;18.10;99.90;;;;;;4815859;29;20133;-80
2023/10/06 11:47:27;;;;;;;13.18;4.22;;;18.10;99.90;;;;;;4848552;29;20065;-78
2023/10/06 11:49:54;;;;;;;16.38;4.03;;;18.10;99.90;;;;;;4842898;29;20051;-80
2023/10/06 11:52:20;;;;;;;13.18;3.97;;;18.10;99.90;;;;;;4802777;29;20100;-80
2023/10/06 11:54:46;;;;;;;16.48;3.90;;;18.10;99.90;;;;;;4832075;29;20042;-79
2023/10/06 11:57:16;;;;;;;12.38;3.30;;;18.20;99.90;;;;;;4818306;29;20078;-80
2023/10/06 11:59:53;;;;;;;19.98;4.28;;;18.30;99.90;;;;;;4830986;29;20085;-80
2023/10/06 12:02:21;;;;;;;13.63;3.63;;;18.40;99.90;;;;;;4796319;29;20046;-79
2023/10/06 12:04:47;;;;;;;14.65;3.92;;;18.50;99.90;;;;;;4821657;29;20114;-79
2023/10/06 12:07:23;;;;;;;15.30;3.55;;;18.60;99.90;;;;;;4846861;29;20046;-80
2023/10/06 12:09:49;;;;;;;13.98;3.42;;;18.70;99.90;;;;;;4831434;29;20083;-79
2023/10/06 12:12:18;;;;;;;13.82;3.70;;;18.70;99.90;;;;;;4824162;29;20038;-78
2023/10/06 12:14:44;;;;;;;20.38;5.38;;;18.80;99.90;;;;;;4817124;29;20051;-79
2023/10/06 12:17:15;;;;;;;14.35;3.33;;;18.70;99.90;;;;;;4804334;29;20082;-79
2023/10/06 12:19:44;;;;;;;19.63;3.75;;;18.80;99.90;;;;;;4813885;29;20065;-79
2023/10/06 12:22:10;;;;;;;11.35;2.92;;;18.80;99.90;;;;;;4828177;29;20056;-78
2023/10/06 12:24:36;;;;;;;16.33;3.25;;;18.90;99.90;;;;;;4831353;29;20038;-80
2023/10/06 12:27:02;;;;;;;15.48;3.42;;;18.90;99.90;;;;;;4804108;29;20046;-79
2023/10/06 12:29:31;;;;;;;13.98;2.95;;;19.00;99.90;;;;;;4829151;29;20104;-79
2023/10/06 12:31:58;;;;;;;14.95;3.22;;;19.10;99.90;;;;;;4833553;29;20802;-80
2023/10/06 12:34:27;;;;;;;14.93;3.88;;;19.10;99.90;;;;;;4827155;29;20046;-81
2023/10/06 12:37:01;;;;;;;11.63;3.33;;;19.10;99.90;;;;;;4835385;29;20493;-79
2023/10/06 12:39:34;;;;;;;17.63;2.95;;;19.10;99.90;;;;;;4832772;29;20069;-78
2023/10/06 12:42:00;;;;;;;12.15;3.03;;;19.10;99.90;;;;;;4812747;29;20046;-78
2023/10/06 12:44:29;;;;;;;17.73;3.30;;;19.00;99.90;;;;;;4813595;29;20495;-78
2023/10/06 12:46:55;;;;;;;20.63;4.43;;;19.00;99.90;;;;;;4820183;29;20058;-79
2023/10/06 12:49:23;;;;;;;15.48;3.72;;;19.00;99.90;;;;;;4804594;29;20054;-79
2023/10/06 12:51:49;;;;;;;10.93;3.75;;;19.00;99.90;;;;;;4819481;29;20108;-78
2023/10/06 12:54:15;;;;;;;18.73;3.78;;;19.00;99.90;;;;;;4804130;29;20049;-78
2023/10/06 12:56:46;;;;;;;13.82;3.10;;;18.90;99.90;;;;;;4834603;29;20232;-78
2023/10/06 12:59:11;;;;;;;13.82;3.22;;;18.90;99.90;;;;;;4835653;29;20133;-78
2023/10/06 13:01:37;;;;;;;15.93;3.30;;;18.80;99.90;;;;;;4833533;29;20133;-78